Time;durP1;ratioP1;P1;durP2;ratioP2;P2;SDS_P1;SDS_P2;PMS_P1;PMS_P2;Temp;Humidity;BMP_temperature;BMP_pressure;BME280_temperature;BME280_humidity;BME280_pressure;Samples;Min_cycle;Max_cycle;Signal;HPM_P1;HPM_P2
2023/03/02 00:08:18;;;;;;;66.20;29.42;;;;;;;-147.20;100.00;63046.97;31310931;28;20034;-71
2023/03/02 00:23:18;;;;;;;53.45;26.77;;;;;;;-147.20;100.00;63046.97;31309489;28;20044;-71
2023/03/02 00:38:19;;;;;;;59.33;31.00;;;;;;;-147.20;100.00;63046.97;31308414;28;20061;-71
2023/03/02 00:53:19;;;;;;;66.28;31.50;;;;;;;-147.20;100.00;63046.97;31306572;28;20075;-71
2023/03/02 01:08:21;;;;;;;64.45;31.77;;;;;;;-147.20;100.00;63046.97;31305542;28;20116;-71
2023/03/02 01:23:21;;;;;;;54.90;28.50;;;;;;;-147.20;100.00;63046.97;31304514;28;20049;-71
2023/03/02 01:38:22;;;;;;;62.30;30.55;;;;;;;-147.20;100.00;63046.97;31325828;28;20044;-70
2023/03/02 01:53:27;;;;;;;67.20;34.80;;;;;;;-147.20;100.00;63046.97;31324084;28;20049;-72
2023/03/02 02:08:27;;;;;;;;;;;;;;;-147.20;100.00;63046.97;31322881;28;20042;-71
2023/03/02 02:23:52;;;;;;;71.65;34.97;;;;;;;-147.20;100.00;63046.97;31322212;28;19918;-72
2023/03/02 02:38:55;;;;;;;68.47;31.65;;;;;;;-147.20;100.00;63046.97;31318734;28;20121;-71
2023/03/02 02:53:58;;;;;;;70.80;33.00;;;;;;;-147.20;100.00;63046.97;31317791;28;20225;-71
2023/03/02 03:09:00;;;;;;;66.50;34.22;;;;;;;-147.20;100.00;63046.97;31316527;28;20418;-71
2023/03/02 03:24:00;;;;;;;62.47;33.00;;;;;;;-147.20;100.00;63046.97;31315429;28;20061;-71
2023/03/02 03:39:04;;;;;;;74.80;31.23;;;;;;;-147.20;100.00;63046.97;31313377;28;20896;-72
2023/03/02 03:54:07;;;;;;;59.97;27.67;;;;;;;-147.20;100.00;63046.97;31310523;28;20046;-71
2023/03/02 04:09:08;;;;;;;89.72;34.03;;;;;;;-147.20;100.00;63046.97;31310193;28;20034;-71
2023/03/02 04:24:08;;;;;;;56.97;34.80;;;;;;;-147.20;100.00;63046.97;31308488;28;20026;-71
2023/03/02 04:39:11;;;;;;;65.82;33.75;;;;;;;-147.20;100.00;63046.97;31305733;28;20908;-71
2023/03/02 04:54:18;;;;;;;83.03;38.13;;;;;;;-147.20;100.00;63046.97;31305628;28;20053;-71
2023/03/02 05:09:18;;;;;;;83.75;38.25;;;;;;;-147.20;100.00;63046.97;31303507;28;20049;-72
2023/03/02 05:24:19;;;;;;;85.80;39.92;;;;;;;-147.20;100.00;63046.97;31299019;28;20392;-72
2023/03/02 05:39:19;;;;;;;83.32;43.95;;;;;;;-147.20;100.00;63046.97;31298252;28;20029;-71
2023/03/02 05:54:20;;;;;;;83.68;40.13;;;;;;;-147.20;100.00;63046.97;31296997;28;20050;-72
2023/03/02 06:09:21;;;;;;;87.03;40.33;;;;;;;-147.20;100.00;63046.97;31297539;28;20069;-72
2023/03/02 06:37:46;;;;;;;59.28;35.00;;;;;;;13.19;66.61;100982.31;31084266;28;96322;-58
2023/03/02 06:52:46;;;;;;;45.60;27.00;;;;;;;17.35;54.53;100984.53;31075870;28;97187;-57
2023/03/02 07:07:47;;;;;;;37.28;24.42;;;;;;;19.17;48.83;100986.94;31074517;28;96811;-54
2023/03/02 07:22:47;;;;;;;38.05;21.40;;;;;;;19.91;45.65;100976.88;31006959;28;96932;-54
2023/03/02 11:52:29;;;;;;;33.03;24.70;;;;;;;39.98;13.78;100826.97;30987204;27;96871;-64
2023/03/02 12:07:29;;;;;;;31.63;25.97;;;;;;;42.14;9.88;100799.69;30707791;28;96647;-62
2023/03/02 12:22:30;;;;;;;29.67;25.70;;;;;;;43.65;8.46;100778.78;30705996;28;96690;-63
2023/03/02 12:37:50;;;;;;;26.93;24.03;;;;;;;43.31;7.56;100756.31;30704960;28;96947;-62
2023/03/02 12:52:58;;;;;;;;;;;;;;;44.49;6.55;100748.34;30681069;28;97785;-61
2023/03/02 13:08:16;;;;;;;22.60;16.53;;;;;;;44.35;6.45;100732.22;30622681;28;96774;-62
2023/03/02 13:23:18;;;;;;;18.33;15.10;;;;;;;43.29;6.72;100714.66;30618857;28;97336;-65
2023/03/02 13:38:21;;;;;;;17.50;14.63;;;;;;;42.32;6.56;100694.47;30616457;28;96849;-63
2023/03/02 13:53:23;;;;;;;18.90;14.53;;;;;;;41.87;6.98;100670.91;30614320;28;97311;-63
2023/03/02 14:08:24;;;;;;;15.80;12.37;;;;;;;40.80;7.16;100650.81;30614356;28;97349;-63
2023/03/02 14:23:25;;;;;;;19.70;12.33;;;;;;;38.15;7.97;100629.97;30613068;28;97002;-63
2023/03/02 14:38:26;;;;;;;12.73;10.17;;;;;;;37.11;8.88;100605.72;30607769;28;97497;-61
2023/03/02 14:53:31;;;;;;;15.77;11.20;;;;;;;33.83;10.45;100603.34;30607872;28;97663;-65
2023/03/02 15:08:32;;;;;;;13.30;9.93;;;;;;;31.00;12.23;100590.59;30608790;28;97452;-61
2023/03/02 15:23:32;;;;;;;12.93;8.43;;;;;;;27.63;14.51;100584.31;30609167;28;97321;-61
2023/03/02 15:38:34;;;;;;;15.48;8.68;;;;;;;23.79;17.18;100581.97;30607325;28;96908;-61
2023/03/02 15:53:37;;;;;;;21.50;9.33;;;;;;;19.23;20.75;100572.91;30607790;28;97409;-63
2023/03/02 16:08:37;;;;;;;19.90;11.57;;;;;;;15.78;24.49;100574.91;30607052;28;97187;-64
2023/03/02 16:23:38;;;;;;;39.47;22.42;;;;;;;12.14;29.09;100584.84;30602330;28;96822;-65
2023/03/02 16:38:38;;;;;;;56.38;30.17;;;;;;;9.47;34.39;100592.31;30624040;28;96738;-62
2023/03/02 16:53:39;;;;;;;54.67;30.27;;;;;;;7.82;38.93;100604.56;30623002;28;96948;-61
2023/03/02 17:08:40;;;;;;;54.00;26.93;;;;;;;6.29;43.22;100640.16;30621918;28;96738;-61
2023/03/02 17:23:40;;;;;;;69.53;32.50;;;;;;;5.00;47.28;100652.47;30611198;28;97262;-60
2023/03/02 17:38:41;;;;;;;52.05;25.65;;;;;;;4.06;49.65;100660.56;30601940;28;96981;-64
2023/03/02 17:53:43;;;;;;;54.38;24.85;;;;;;;3.19;52.11;100655.56;30611087;28;96741;-61
2023/03/02 18:08:44;;;;;;;54.08;24.33;;;;;;;2.57;54.22;100666.97;30605387;28;97665;-61
2023/03/02 18:23:45;;;;;;;56.10;25.02;;;;;;;2.01;56.38;100669.91;30602526;28;96755;-62
2023/03/02 18:38:46;;;;;;;62.30;27.23;;;;;;;1.58;57.81;100678.84;30603583;28;97593;-61
2023/03/02 18:53:47;;;;;;;63.45;26.85;;;;;;;1.31;59.14;100689.34;30603795;28;97248;-61
2023/03/02 19:08:48;;;;;;;68.97;29.75;;;;;;;1.19;60.30;100693.59;30600431;28;97226;-60
2023/03/02 19:23:48;;;;;;;61.15;25.63;;;;;;;1.45;61.40;100698.94;30600548;28;97125;-60
2023/03/02 19:38:49;;;;;;;61.95;27.10;;;;;;;1.61;61.89;100683.88;30600171;28;96671;-62
2023/03/02 19:53:49;;;;;;;68.50;28.70;;;;;;;1.69;62.07;100692.13;30598709;28;97224;-62
2023/03/02 20:08:52;;;;;;;64.90;25.83;;;;;;;1.73;62.83;100694.56;30611305;28;96740;-64
2023/03/02 20:23:53;;;;;;;63.47;26.73;;;;;;;1.77;63.58;100707.38;30617881;28;97610;-60
2023/03/02 20:39:00;;;;;;;70.47;28.13;;;;;;;1.82;63.85;100691.31;30616058;28;96829;-61
2023/03/02 20:54:02;;;;;;;64.22;26.98;;;;;;;1.97;64.16;100681.56;30608376;28;97601;-61
2023/03/02 21:09:05;;;;;;;67.80;29.40;;;;;;;1.76;64.50;100689.09;30616500;28;97956;-61
2023/03/02 21:24:06;;;;;;;70.60;28.15;;;;;;;1.88;64.88;100683.03;30651533;28;97771;-60
2023/03/02 21:39:08;;;;;;;77.53;30.75;;;;;;;2.00;64.82;100666.44;30732764;28;97239;-59
2023/03/02 21:54:08;;;;;;;67.90;29.60;;;;;;;1.73;64.79;100655.16;30729851;28;97035;-60
2023/03/02 22:09:10;;;;;;;71.50;27.88;;;;;;;1.27;65.61;100657.22;30730315;28;96614;-60
2023/03/02 22:24:11;;;;;;;85.63;30.48;;;;;;;1.37;65.88;100661.84;30729334;28;97382;-60
2023/03/02 22:39:27;;;;;;;74.43;30.20;;;;;;;1.24;66.84;100652.13;30727823;28;97292;-60
2023/03/02 22:54:36;;;;;;;69.07;29.08;;;;;;;1.42;67.35;100644.03;30632920;28;98328;-59
2023/03/02 23:09:36;;;;;;;78.15;27.55;;;;;;;1.31;67.33;100627.19;30615386;28;96755;-59
2023/03/02 23:24:37;;;;;;;68.47;27.42;;;;;;;1.33;67.96;100627.09;30613996;28;97235;-60
2023/03/02 23:39:37;;;;;;;69.95;27.02;;;;;;;1.58;68.11;100614.97;30612517;28;97129;-60
2023/03/02 23:54:37;;;;;;;88.93;31.58;;;;;;;1.62;67.97;100619.91;30611676;28;97945;-60
